Portada
METAR-TAF:

METAR-TAF

Aeroports :

Wallops Flight Facility

Wallops Island, Virgínia, Estats Units d'Amèrica

latitud: 37-56-26N, longitud: 075-27-47W, altitud: 12 m

Observació

L'informe es va fer fa 17 minuts, a les 16:54 UTC
Vent 5 kt del Oest
Temperatura 9°C
Humitat 66%
Pressió 1000 hPa
Visibilitat: 16.1 km
Cel clar

METAR: KWAL 161654Z AUTO 27005KT 10SM CLR 09/03 A2952 RMK AO2 SLP993 T00890033

Hora: 12:11 (17:11 UTC)


TAF: manca

Observacions i pronòstics meteorològics de més de 4000 aeroports (METAR i TAF).

Les estacions disponibles són els punts grocs i vermells al mapa.

Posi el ratolí al punt desitjat per veure el nom de l'estació.

Feu clic per veure les observacions i els pronòstics meteorològics.

Per canviar el mapa: feu clic els botons verds amb una creu de color negre per apropar; al botó verd amb un guió per allunyar la imatge; o en les fletxes verdes per a mapes adjacents.


METAR-TAF: